Time;durP1;ratioP1;P1;durP2;ratioP2;P2;SDS_P1;SDS_P2;PMS_P1;PMS_P2;Temp;Humidity;BMP_temperature;BMP_pressure;BME280_temperature;BME280_humidity;BME280_pressure;Samples;Min_cycle;Max_cycle;Signal;HPM_P1;HPM_P2
2020/12/06 00:00:09;;;;;;;;;;;25.90;42.50;;;;;;4923956;29;20014;-77
2020/12/06 00:02:36;;;;;;;;;;;26.00;40.30;;;;;;4918627;29;19958;-75
2020/12/06 00:05:05;;;;;;;;;;;26.20;42.80;;;;;;4917496;29;19914;-76
2020/12/06 00:07:34;;;;;;;;;;;26.10;38.00;;;;;;4918465;29;19911;-76
2020/12/06 00:10:00;;;;;;;;;;;26.20;38.50;;;;;;4917140;29;20377;-75
2020/12/06 00:12:27;;;;;;;;;;;26.20;34.20;;;;;;4916906;29;19922;-76
2020/12/06 00:14:57;;;;;;;;;;;26.20;34.70;;;;;;4918152;29;19923;-77
2020/12/06 00:17:23;;;;;;;;;;;26.10;33.50;;;;;;4904682;29;20374;-77
2020/12/06 00:19:50;;;;;;;;;;;26.10;35.40;;;;;;4918672;29;20363;-74
2020/12/06 00:22:21;;;;;;;;;;;26.20;35.20;;;;;;4917141;29;19907;-77
2020/12/06 00:24:49;;;;;;;;;;;26.40;34.70;;;;;;4918209;29;19914;-77
2020/12/06 00:27:15;;;;;;;;;;;26.60;36.10;;;;;;4914187;29;19919;-77
2020/12/06 00:29:42;;;;;;;;;;;26.90;36.90;;;;;;4944637;29;19917;-78
2020/12/06 00:32:09;;;;;;;;;;;27.10;33.70;;;;;;4939591;29;19914;-77
2020/12/06 00:34:36;;;;;;;;;;;27.30;35.20;;;;;;4918397;29;20306;-77
2020/12/06 00:37:05;;;;;;;;;;;27.70;35.30;;;;;;4918401;29;19971;-79
2020/12/06 00:39:35;;;;;;;;;;;28.00;34.40;;;;;;4918504;29;19935;-75
2020/12/06 00:42:01;;;;;;;;;;;28.40;33.70;;;;;;4917896;29;19965;-77
2020/12/06 00:44:31;;;;;;;;;;;28.60;35.00;;;;;;4928618;29;20178;-78
2020/12/06 00:46:58;;;;;;;;;;;29.20;32.40;;;;;;4937217;29;19925;-78
2020/12/06 00:49:25;;;;;;;;;;;29.50;30.60;;;;;;4917825;29;20275;-78
2020/12/06 00:51:51;;;;;;;;;;;29.70;31.10;;;;;;4917029;29;20064;-78
2020/12/06 00:54:18;;;;;;;;;;;29.70;31.20;;;;;;4926336;29;20006;-76
2020/12/06 00:56:45;;;;;;;;;;;29.70;32.00;;;;;;4916281;29;20008;-77
2020/12/06 00:59:11;;;;;;;;;;;30.00;33.30;;;;;;4922395;29;19907;-78
2020/12/06 01:01:44;;;;;;;;;;;30.40;30.50;;;;;;4923271;29;19915;-77
2020/12/06 01:04:10;;;;;;;;;;;30.10;29.70;;;;;;4928089;29;20362;-78
2020/12/06 01:06:37;;;;;;;;;;;30.20;30.60;;;;;;4919388;29;19922;-77
2020/12/06 01:09:04;;;;;;;;;;;29.80;30.30;;;;;;4912577;29;19911;-76
2020/12/06 01:11:30;;;;;;;;;;;29.90;30.00;;;;;;4916110;29;19911;-79
2020/12/06 01:13:57;;;;;;;;;;;30.00;29.10;;;;;;4917904;29;19923;-78
2020/12/06 01:16:27;;;;;;;;;;;30.00;28.20;;;;;;4912073;29;19981;-79
2020/12/06 01:18:53;;;;;;;;;;;29.90;28.00;;;;;;4919011;29;19929;-79
2020/12/06 01:21:20;;;;;;;;;;;29.70;27.70;;;;;;4916308;29;20274;-78
2020/12/06 01:23:47;;;;;;;;;;;29.50;28.10;;;;;;4931861;29;20371;-77
2020/12/06 01:26:13;;;;;;;;;;;29.90;29.80;;;;;;4906310;29;19918;-75
2020/12/06 01:28:41;;;;;;;;;;;30.30;29.40;;;;;;4917369;29;20250;-78
2020/12/06 01:31:08;;;;;;;;;;;30.50;28.80;;;;;;4924446;29;19915;-74
2020/12/06 01:33:35;;;;;;;;;;;30.10;27.60;;;;;;4903049;29;19997;-77
2020/12/06 01:36:01;;;;;;;;;;;29.80;28.00;;;;;;4916145;29;19922;-73
2020/12/06 01:38:28;;;;;;;;;;;29.60;29.60;;;;;;4935890;29;19911;-77
2020/12/06 01:40:58;;;;;;;;;;;29.60;28.10;;;;;;4917918;29;19963;-77
2020/12/06 01:43:27;;;;;;;;;;;29.40;28.70;;;;;;4918662;29;19907;-79
2020/12/06 01:45:54;;;;;;;;;;;29.10;28.30;;;;;;4916005;29;20350;-76
2020/12/06 01:48:20;;;;;;;;;;;28.80;29.20;;;;;;4916314;29;19918;-78
2020/12/06 01:50:47;;;;;;;;;;;28.50;28.80;;;;;;4916016;29;19926;-76
2020/12/06 01:53:14;;;;;;;;;;;28.30;28.80;;;;;;4915616;29;19919;-74
2020/12/06 01:55:43;;;;;;;;;;;28.20;29.10;;;;;;4917086;29;20374;-78
2020/12/06 01:58:10;;;;;;;;;;;28.20;29.40;;;;;;4916098;29;19907;-76
2020/12/06 02:00:40;;;;;;;;;;;28.20;29.20;;;;;;4901496;29;19915;-78
2020/12/06 02:03:12;;;;;;;;;;;28.20;30.80;;;;;;4926248;29;19907;-78
2020/12/06 02:05:40;;;;;;;;;;;28.30;30.00;;;;;;4919121;29;19915;-76
2020/12/06 02:08:06;;;;;;;;;;;28.30;29.40;;;;;;4898459;29;20078;-76
2020/12/06 02:10:33;;;;;;;;;;;28.20;30.50;;;;;;4917351;29;20306;-75
2020/12/06 02:13:02;;;;;;;;;;;28.20;29.00;;;;;;4917075;29;19911;-78
2020/12/06 02:15:29;;;;;;;;;;;28.20;29.20;;;;;;4919089;29;19915;-79
2020/12/06 02:17:56;;;;;;;;;;;28.20;30.20;;;;;;4923248;29;20387;-78
2020/12/06 02:20:22;;;;;;;;;;;28.20;29.20;;;;;;4923345;29;19907;-79
2020/12/06 02:22:49;;;;;;;;;;;28.10;30.00;;;;;;4932366;29;19923;-78
2020/12/06 02:25:16;;;;;;;;;;;28.20;31.80;;;;;;4923272;29;19930;-77
2020/12/06 02:27:42;;;;;;;;;;;28.20;31.40;;;;;;4926060;29;19930;-78
2020/12/06 02:30:09;;;;;;;;;;;28.20;30.10;;;;;;4923857;29;20261;-78
2020/12/06 02:32:36;;;;;;;;;;;28.20;30.50;;;;;;4918949;29;20310;-80
2020/12/06 02:35:04;;;;;;;;;;;28.20;29.30;;;;;;4905290;29;19950;-79
2020/12/06 02:37:31;;;;;;;;;;;28.30;29.70;;;;;;4922492;29;19911;-78
2020/12/06 02:40:00;;;;;;;;;;;28.30;30.70;;;;;;4922256;29;19923;-77
2020/12/06 02:42:27;;;;;;;;;;;28.40;28.90;;;;;;4922179;29;19907;-78
2020/12/06 02:44:53;;;;;;;;;;;28.40;29.20;;;;;;4921922;29;19907;-75
2020/12/06 02:47:20;;;;;;;;;;;28.30;29.30;;;;;;4912556;29;19921;-77
2020/12/06 02:49:49;;;;;;;;;;;28.30;28.90;;;;;;4931845;29;19911;-78
2020/12/06 02:52:16;;;;;;;;;;;28.40;28.60;;;;;;4905062;29;19907;-80
2020/12/06 02:54:43;;;;;;;;;;;28.40;28.20;;;;;;4922257;29;20429;-77
2020/12/06 02:57:09;;;;;;;;;;;28.50;29.30;;;;;;4922582;29;19907;-77
2020/12/06 02:59:36;;;;;;;;;;;28.50;29.60;;;;;;4923225;29;19915;-79
2020/12/06 03:02:03;;;;;;;;;;;28.50;29.20;;;;;;4905942;29;20337;-80
2020/12/06 03:04:32;;;;;;;;;;;28.50;29.90;;;;;;4922278;29;20369;-77
2020/12/06 03:06:58;;;;;;;;;;;28.40;28.00;;;;;;4906838;29;19911;-78
2020/12/06 03:09:25;;;;;;;;;;;28.50;28.00;;;;;;4905989;29;20369;-80
2020/12/06 03:11:52;;;;;;;;;;;28.40;28.60;;;;;;4927228;29;20258;-76
2020/12/06 03:14:19;;;;;;;;;;;28.50;28.20;;;;;;4941599;29;19914;-78
2020/12/06 03:16:47;;;;;;;;;;;28.50;28.20;;;;;;4939487;29;19910;-78
2020/12/06 03:19:15;;;;;;;;;;;28.40;28.30;;;;;;4941266;29;19911;-77
2020/12/06 03:21:41;;;;;;;;;;;28.50;30.70;;;;;;4930213;29;20361;-77
2020/12/06 03:24:08;;;;;;;;;;;28.50;28.60;;;;;;4932319;29;19911;-76
2020/12/06 03:26:37;;;;;;;;;;;28.50;30.70;;;;;;4909267;29;20378;-77
2020/12/06 03:29:04;;;;;;;;;;;28.50;29.50;;;;;;4936138;29;19926;-78
2020/12/06 03:31:30;;;;;;;;;;;28.50;29.50;;;;;;4919644;29;19911;-77
2020/12/06 03:33:57;;;;;;;;;;;28.50;29.10;;;;;;4920599;29;19934;-79
2020/12/06 03:36:24;;;;;;;;;;;28.50;28.90;;;;;;4932230;29;19915;-79
2020/12/06 03:38:59;;;;;;;;;;;28.60;29.10;;;;;;4919560;29;19946;-77
2020/12/06 03:41:26;;;;;;;;;;;28.70;29.20;;;;;;4920890;29;20429;-78
2020/12/06 03:43:55;;;;;;;;;;;28.60;28.80;;;;;;4919374;29;20294;-80
2020/12/06 03:46:22;;;;;;;;;;;28.60;27.90;;;;;;4919653;29;19974;-77
2020/12/06 03:48:49;;;;;;;;;;;28.60;28.80;;;;;;4919750;29;19915;-76
2020/12/06 03:51:15;;;;;;;;;;;28.60;29.10;;;;;;4919279;29;19955;-78
2020/12/06 03:53:42;;;;;;;;;;;28.60;28.80;;;;;;4919900;29;20018;-78
2020/12/06 03:56:09;;;;;;;;;;;28.60;28.80;;;;;;4919398;29;19946;-78
2020/12/06 03:58:35;;;;;;;;;;;28.80;28.60;;;;;;4920119;29;19918;-79
2020/12/06 04:01:02;;;;;;;;;;;28.90;28.70;;;;;;4921083;29;19907;-77
2020/12/06 04:03:29;;;;;;;;;;;28.90;28.20;;;;;;4919671;29;19963;-76
2020/12/06 04:05:55;;;;;;;;;;;28.80;28.10;;;;;;4919160;29;19970;-78
2020/12/06 04:08:22;;;;;;;;;;;28.90;28.00;;;;;;4919865;29;19907;-78
2020/12/06 04:10:50;;;;;;;;;;;28.80;27.40;;;;;;4931967;29;19913;-77
2020/12/06 04:13:17;;;;;;;;;;;28.90;28.20;;;;;;4918585;29;19922;-76
2020/12/06 04:15:43;;;;;;;;;;;28.90;27.80;;;;;;4920191;29;19914;-78
2020/12/06 04:18:13;;;;;;;;;;;28.90;28.90;;;;;;4918737;29;19962;-80
2020/12/06 04:20:43;;;;;;;;;;;28.90;28.90;;;;;;4918805;29;19962;-78
2020/12/06 04:23:10;;;;;;;;;;;29.00;27.40;;;;;;4904072;29;19907;-81
2020/12/06 04:25:37;;;;;;;;;;;29.10;26.70;;;;;;4923755;29;19968;-80
2020/12/06 04:28:03;;;;;;;;;;;29.00;27.60;;;;;;4903068;29;19911;-79
2020/12/06 04:30:30;;;;;;;;;;;29.00;27.90;;;;;;4902766;29;19938;-81
2020/12/06 04:32:58;;;;;;;;;;;29.00;28.30;;;;;;4918736;29;20184;-81
2020/12/06 04:35:25;;;;;;;;;;;29.00;27.90;;;;;;4917265;29;19919;-79
2020/12/06 04:37:51;;;;;;;;;;;29.10;28.00;;;;;;4919054;29;20291;-81
2020/12/06 04:40:21;;;;;;;;;;;29.10;27.90;;;;;;4900598;29;19911;-82
2020/12/06 04:42:51;;;;;;;;;;;29.10;28.90;;;;;;4918612;29;20374;-80
2020/12/06 04:45:17;;;;;;;;;;;29.10;28.60;;;;;;4918136;29;20405;-78
2020/12/06 04:47:48;;;;;;;;;;;29.10;30.00;;;;;;4921321;29;20001;-79
2020/12/06 04:50:35;;;;;;;;;;;29.00;30.20;;;;;;4935942;29;19932;-76
2020/12/06 04:53:03;;;;;;;;;;;29.10;29.00;;;;;;4937238;29;19938;-76
2020/12/06 04:55:31;;;;;;;;;;;29.10;29.40;;;;;;4938659;29;20021;-78
2020/12/06 04:57:58;;;;;;;;;;;29.00;29.40;;;;;;4934583;29;19911;-78
2020/12/06 05:00:35;;;;;;;;;;;29.10;28.50;;;;;;4935085;29;19906;-77
2020/12/06 05:03:11;;;;;;;;;;;29.00;29.00;;;;;;4919470;29;19977;-78
2020/12/06 05:05:39;;;;;;;;;;;29.10;28.50;;;;;;4917533;29;19961;-77
2020/12/06 05:08:07;;;;;;;;;;;29.00;29.10;;;;;;4901945;29;19942;-76
2020/12/06 05:10:41;;;;;;;;;;;28.90;29.20;;;;;;4939290;29;19906;-76
2020/12/06 05:13:09;;;;;;;;;;;28.80;28.90;;;;;;4934729;29;19948;-77
2020/12/06 05:15:36;;;;;;;;;;;28.90;28.90;;;;;;4916996;29;19919;-78
2020/12/06 05:18:08;;;;;;;;;;;28.80;29.80;;;;;;4935012;29;19973;-78
2020/12/06 05:20:35;;;;;;;;;;;28.90;28.90;;;;;;4903591;29;19915;-76
2020/12/06 05:23:04;;;;;;;;;;;29.00;29.00;;;;;;4920169;29;19907;-78
2020/12/06 05:25:30;;;;;;;;;;;28.90;28.60;;;;;;4936592;29;19913;-76
2020/12/06 05:27:57;;;;;;;;;;;28.90;28.50;;;;;;4936682;29;19911;-79
2020/12/06 05:30:24;;;;;;;;;;;28.70;29.80;;;;;;4936498;29;20066;-76
2020/12/06 05:32:50;;;;;;;;;;;28.70;29.20;;;;;;4919105;29;19907;-78
2020/12/06 05:35:19;;;;;;;;;;;28.80;29.70;;;;;;4936507;29;20377;-77
2020/12/06 05:37:48;;;;;;;;;;;28.90;29.50;;;;;;4936341;29;19954;-79
2020/12/06 05:40:19;;;;;;;;;;;28.90;28.70;;;;;;4918890;29;20369;-77
2020/12/06 05:42:49;;;;;;;;;;;28.80;28.60;;;;;;4936192;29;19990;-76
2020/12/06 05:45:18;;;;;;;;;;;28.80;28.30;;;;;;4936540;29;19906;-76
2020/12/06 05:47:46;;;;;;;;;;;28.80;29.20;;;;;;4936499;29;19906;-77
2020/12/06 05:50:13;;;;;;;;;;;28.70;28.20;;;;;;4935680;29;19906;-77
2020/12/06 05:52:40;;;;;;;;;;;28.80;28.80;;;;;;4936050;29;19906;-78
2020/12/06 05:55:06;;;;;;;;;;;28.80;28.50;;;;;;4935875;29;19919;-77
2020/12/06 05:57:34;;;;;;;;;;;28.70;28.20;;;;;;4936154;29;19950;-75
2020/12/06 06:00:03;;;;;;;;;;;28.60;29.90;;;;;;4919138;29;19911;-76
2020/12/06 06:02:30;;;;;;;;;;;28.50;31.90;;;;;;4935348;29;19986;-78
2020/12/06 06:05:07;;;;;;;;;;;28.50;29.90;;;;;;4936039;29;19907;-76
2020/12/06 06:07:34;;;;;;;;;;;28.50;30.20;;;;;;4935895;29;19914;-76
2020/12/06 06:13:05;;;;;;;;;;;28.70;29.00;;;;;;4936925;29;19968;-76
2020/12/06 06:15:33;;;;;;;;;;;28.80;28.30;;;;;;4935901;29;19922;-76
2020/12/06 06:18:02;;;;;;;;;;;28.60;29.20;;;;;;4935623;29;19954;-75
2020/12/06 06:20:29;;;;;;;;;;;28.60;29.60;;;;;;4935696;29;19946;-77
2020/12/06 06:22:58;;;;;;;;;;;28.40;29.10;;;;;;4935712;29;19907;-77
2020/12/06 06:25:25;;;;;;;;;;;28.40;28.10;;;;;;4935760;29;20338;-77
2020/12/06 06:27:52;;;;;;;;;;;28.30;28.60;;;;;;4934666;29;20054;-76
2020/12/06 06:30:21;;;;;;;;;;;28.20;29.60;;;;;;4935210;29;19917;-76
2020/12/06 06:32:49;;;;;;;;;;;28.30;28.70;;;;;;4935725;29;19915;-77
2020/12/06 06:35:16;;;;;;;;;;;28.30;29.00;;;;;;4935416;29;19914;-77
2020/12/06 06:37:45;;;;;;;;;;;28.20;29.30;;;;;;4918548;29;19906;-77
2020/12/06 06:40:14;;;;;;;;;;;28.30;28.60;;;;;;4934718;29;19907;-77
2020/12/06 06:42:42;;;;;;;;;;;28.40;28.70;;;;;;4934802;29;20414;-76
2020/12/06 06:45:13;;;;;;;;;;;28.50;28.50;;;;;;4933553;29;19907;-75
2020/12/06 06:47:41;;;;;;;;;;;28.30;29.30;;;;;;4900940;29;20057;-76
2020/12/06 06:50:09;;;;;;;;;;;28.30;29.00;;;;;;4932630;29;20357;-77
2020/12/06 06:52:37;;;;;;;;;;;28.20;28.10;;;;;;4933217;29;19911;-76
2020/12/06 06:55:04;;;;;;;;;;;28.20;28.30;;;;;;4933346;29;19923;-78
2020/12/06 06:57:32;;;;;;;;;;;28.10;29.00;;;;;;4933045;29;19907;-78
2020/12/06 07:00:00;;;;;;;;;;;28.00;28.70;;;;;;4933383;29;19914;-78
2020/12/06 07:02:32;;;;;;;;;;;28.10;29.90;;;;;;4933643;29;19929;-78
2020/12/06 07:05:20;;;;;;;;;;;28.00;29.60;;;;;;4936850;29;19906;-77
2020/12/06 07:07:50;;;;;;;;;;;27.90;29.30;;;;;;4935711;29;19958;-77
2020/12/06 07:10:18;;;;;;;;;;;27.80;28.10;;;;;;4937076;29;19906;-78
2020/12/06 07:12:49;;;;;;;;;;;27.90;28.60;;;;;;4937395;29;20314;-78
2020/12/06 07:15:17;;;;;;;;;;;28.00;28.00;;;;;;4937138;29;20370;-78
2020/12/06 07:17:44;;;;;;;;;;;28.00;28.60;;;;;;4937026;29;19910;-78
2020/12/06 07:20:15;;;;;;;;;;;28.00;28.80;;;;;;4935492;29;19907;-76
2020/12/06 07:22:47;;;;;;;;;;;28.10;27.90;;;;;;4920387;29;19957;-78
2020/12/06 07:25:17;;;;;;;;;;;28.00;28.00;;;;;;4936447;29;20357;-79
2020/12/06 07:27:43;;;;;;;;;;;28.00;28.30;;;;;;4937152;29;19910;-78
2020/12/06 07:30:11;;;;;;;;;;;28.00;29.10;;;;;;4923997;29;19911;-79
2020/12/06 07:32:38;;;;;;;;;;;28.00;29.00;;;;;;4901380;29;19916;-80
2020/12/06 07:35:05;;;;;;;;;;;27.90;28.30;;;;;;4904361;29;19923;-77
2020/12/06 07:37:34;;;;;;;;;;;27.80;29.20;;;;;;4922945;29;19907;-80
2020/12/06 07:40:03;;;;;;;;;;;27.70;28.90;;;;;;4923321;29;19951;-82
2020/12/06 07:42:30;;;;;;;;;;;27.70;28.30;;;;;;4922916;29;19942;-82
2020/12/06 07:44:58;;;;;;;;;;;27.70;27.60;;;;;;4918553;29;19911;-81
2020/12/06 07:47:25;;;;;;;;;;;27.60;28.80;;;;;;4919970;29;19914;-79
2020/12/06 07:49:52;;;;;;;;;;;27.60;30.10;;;;;;4921585;29;19911;-81
2020/12/06 07:52:20;;;;;;;;;;;27.50;29.20;;;;;;4921786;29;20669;-84
2020/12/06 07:54:56;;;;;;;;;;;27.40;28.40;;;;;;4917161;29;20135;-81
2020/12/06 07:57:27;;;;;;;;;;;27.20;28.70;;;;;;4915606;29;19915;-82
2020/12/06 07:59:54;;;;;;;;;;;27.20;29.80;;;;;;4916335;29;19915;-80
2020/12/06 08:02:24;;;;;;;;;;;27.20;28.80;;;;;;4919820;29;19907;-81
2020/12/06 08:04:53;;;;;;;;;;;27.20;28.80;;;;;;4920102;29;19907;-81
2020/12/06 08:07:24;;;;;;;;;;;27.30;28.70;;;;;;4925773;29;19922;-84
2020/12/06 08:09:58;;;;;;;;;;;27.20;30.40;;;;;;4936539;29;19974;-79
2020/12/06 08:12:25;;;;;;;;;;;27.20;28.90;;;;;;4902391;29;19933;-83
2020/12/06 08:15:01;;;;;;;;;;;27.20;30.00;;;;;;4917824;29;19937;-79
2020/12/06 08:17:41;;;;;;;;;;;27.00;29.50;;;;;;4901748;29;19934;-79
2020/12/06 08:20:11;;;;;;;;;;;26.90;29.70;;;;;;4918452;29;19915;-76
2020/12/06 08:22:57;;;;;;;;;;;26.90;30.90;;;;;;4918362;29;19915;-80
2020/12/06 08:25:25;;;;;;;;;;;26.80;29.50;;;;;;4922289;29;19918;-80
2020/12/06 08:27:53;;;;;;;;;;;26.80;30.90;;;;;;4901452;29;19907;-79
2020/12/06 08:30:22;;;;;;;;;;;26.80;29.90;;;;;;4917211;29;19919;-82
2020/12/06 08:32:58;;;;;;;;;;;26.70;30.30;;;;;;4918050;29;20353;-79
2020/12/06 08:35:56;;;;;;;;;;;26.60;29.90;;;;;;4918425;29;20389;-77
2020/12/06 08:38:26;;;;;;;;;;;26.60;30.80;;;;;;4914101;29;20044;-76
2020/12/06 08:41:08;;;;;;;;;;;26.50;31.50;;;;;;4918015;29;20281;-83
2020/12/06 08:44:02;;;;;;;;;;;26.40;30.50;;;;;;4918773;29;20282;-82
2020/12/06 08:46:29;;;;;;;;;;;26.50;30.50;;;;;;4917778;29;20006;-79
2020/12/06 08:48:59;;;;;;;;;;;26.40;30.70;;;;;;4916917;29;19914;-75
2020/12/06 08:51:27;;;;;;;;;;;26.40;31.20;;;;;;4918336;29;19907;-80
2020/12/06 08:53:58;;;;;;;;;;;26.30;30.10;;;;;;4918196;29;19923;-80
2020/12/06 08:56:33;;;;;;;;;;;26.30;30.00;;;;;;4901219;29;20422;-77
2020/12/06 08:59:02;;;;;;;;;;;26.30;30.40;;;;;;4917731;29;20023;-78
2020/12/06 09:01:30;;;;;;;;;;;26.20;31.10;;;;;;4924929;29;19906;-82
2020/12/06 09:03:58;;;;;;;;;;;26.10;32.50;;;;;;4936602;29;19911;-78
2020/12/06 09:06:28;;;;;;;;;;;26.00;31.80;;;;;;4919680;29;19907;-78
2020/12/06 09:08:59;;;;;;;;;;;26.00;31.80;;;;;;4936983;29;20006;-80
2020/12/06 09:11:26;;;;;;;;;;;26.00;32.80;;;;;;4920429;29;19906;-82
2020/12/06 09:13:55;;;;;;;;;;;25.80;31.60;;;;;;4922458;29;19915;-81
2020/12/06 09:16:23;;;;;;;;;;;25.80;32.70;;;;;;4916075;29;19911;-80
2020/12/06 09:18:50;;;;;;;;;;;25.80;31.90;;;;;;4917306;29;19997;-79
2020/12/06 09:21:17;;;;;;;;;;;25.80;32.00;;;;;;4900565;29;19911;-79
2020/12/06 09:23:45;;;;;;;;;;;25.80;33.20;;;;;;4917421;29;20002;-78
2020/12/06 09:26:11;;;;;;;;;;;25.70;33.10;;;;;;4916723;29;20378;-77
2020/12/06 09:28:38;;;;;;;;;;;25.60;32.80;;;;;;4917268;29;19918;-81
2020/12/06 09:31:05;;;;;;;;;;;25.60;33.20;;;;;;4899355;29;20014;-81
2020/12/06 09:33:32;;;;;;;;;;;25.50;34.30;;;;;;4916256;29;20289;-77
2020/12/06 09:35:59;;;;;;;;;;;25.40;34.40;;;;;;4917881;29;19955;-77
2020/12/06 09:38:26;;;;;;;;;;;25.30;33.60;;;;;;4916910;29;19911;-78
2020/12/06 09:40:53;;;;;;;;;;;25.40;33.90;;;;;;4916801;29;19970;-77
2020/12/06 09:43:20;;;;;;;;;;;25.30;34.50;;;;;;4917292;29;19979;-76
2020/12/06 09:45:46;;;;;;;;;;;25.30;33.80;;;;;;4900061;29;19907;-80
2020/12/06 09:48:14;;;;;;;;;;;25.20;34.60;;;;;;4916802;29;19907;-77
2020/12/06 09:50:41;;;;;;;;;;;25.10;34.60;;;;;;4899591;29;20282;-78
2020/12/06 09:53:07;;;;;;;;;;;25.10;33.70;;;;;;4915227;29;19918;-80
2020/12/06 09:55:34;;;;;;;;;;;25.10;35.20;;;;;;4917089;29;20009;-76
2020/12/06 09:58:01;;;;;;;;;;;25.10;34.30;;;;;;4917037;29;19994;-79
2020/12/06 10:00:27;;;;;;;;;;;25.00;33.70;;;;;;4916467;29;20038;-79
2020/12/06 10:02:54;;;;;;;;;;;25.00;35.60;;;;;;4916864;29;19907;-79
2020/12/06 10:05:23;;;;;;;;;;;24.90;35.00;;;;;;4917023;29;20330;-81
2020/12/06 10:07:50;;;;;;;;;;;24.90;34.50;;;;;;4916843;29;19922;-81
2020/12/06 10:10:19;;;;;;;;;;;24.90;33.80;;;;;;4916111;29;19935;-81
2020/12/06 10:12:47;;;;;;;;;;;24.90;34.80;;;;;;4884974;29;20323;-81
2020/12/06 10:15:14;;;;;;;;;;;24.90;34.50;;;;;;4898083;29;19958;-81
2020/12/06 10:17:40;;;;;;;;;;;25.00;33.50;;;;;;4898212;29;19915;-80
2020/12/06 10:20:08;;;;;;;;;;;24.90;33.60;;;;;;4916167;29;19970;-81
2020/12/06 10:22:35;;;;;;;;;;;24.90;33.40;;;;;;4916701;29;19987;-81
2020/12/06 10:25:01;;;;;;;;;;;24.80;33.80;;;;;;4916478;29;20339;-81
2020/12/06 10:27:31;;;;;;;;;;;24.80;34.00;;;;;;4916174;29;19907;-81
2020/12/06 10:29:59;;;;;;;;;;;24.80;34.20;;;;;;4919709;29;19918;-84
2020/12/06 10:32:26;;;;;;;;;;;24.80;34.90;;;;;;4915230;29;19913;-84
2020/12/06 10:34:52;;;;;;;;;;;24.70;35.30;;;;;;4899933;29;19926;-84
2020/12/06 10:37:21;;;;;;;;;;;24.70;35.00;;;;;;4917576;29;19953;-80
2020/12/06 10:39:47;;;;;;;;;;;24.60;34.50;;;;;;4919867;29;19915;-75
2020/12/06 10:42:19;;;;;;;;;;;24.60;34.60;;;;;;4917243;29;19915;-74
2020/12/06 10:44:46;;;;;;;;;;;24.50;35.20;;;;;;4920827;29;19914;-77
2020/12/06 10:47:14;;;;;;;;;;;24.50;35.30;;;;;;4917822;29;19907;-80
2020/12/06 10:49:43;;;;;;;;;;;24.50;35.10;;;;;;4920586;29;20277;-80
2020/12/06 10:52:12;;;;;;;;;;;24.40;35.40;;;;;;4905758;29;19911;-78
2020/12/06 10:54:39;;;;;;;;;;;24.40;36.60;;;;;;4920440;29;20366;-81
2020/12/06 10:57:06;;;;;;;;;;;24.40;35.50;;;;;;4904698;29;19911;-82
2020/12/06 10:59:35;;;;;;;;;;;24.30;35.20;;;;;;4919363;29;19941;-76
2020/12/06 11:02:02;;;;;;;;;;;24.30;35.80;;;;;;4918995;29;19914;-78
2020/12/06 11:04:29;;;;;;;;;;;24.20;35.60;;;;;;4921021;29;20285;-77
2020/12/06 11:06:59;;;;;;;;;;;24.20;35.70;;;;;;4901890;29;19915;-81
2020/12/06 11:09:26;;;;;;;;;;;24.20;35.70;;;;;;4921217;29;19914;-75
2020/12/06 11:11:53;;;;;;;;;;;24.20;36.30;;;;;;4921086;29;19926;-77
2020/12/06 11:14:19;;;;;;;;;;;24.10;36.60;;;;;;4920479;29;19915;-82
2020/12/06 11:16:49;;;;;;;;;;;24.10;37.20;;;;;;4902921;29;19918;-75
2020/12/06 11:19:16;;;;;;;;;;;24.10;37.10;;;;;;4919016;29;19907;-81
2020/12/06 11:21:43;;;;;;;;;;;24.00;36.50;;;;;;4901533;29;19918;-79
2020/12/06 11:24:09;;;;;;;;;;;23.90;36.60;;;;;;4919678;29;19914;-76
2020/12/06 11:26:36;;;;;;;;;;;23.90;36.60;;;;;;4916654;29;20647;-76
2020/12/06 11:29:04;;;;;;;;;;;23.80;37.20;;;;;;4923236;29;19993;-80
2020/12/06 11:31:31;;;;;;;;;;;23.80;37.20;;;;;;4922575;29;19914;-83
2020/12/06 11:33:58;;;;;;;;;;;23.80;37.40;;;;;;4920435;29;20101;-76
2020/12/06 11:36:27;;;;;;;;;;;23.70;42.50;;;;;;4918933;29;20777;-78
2020/12/06 11:38:56;;;;;;;;;;;23.70;37.90;;;;;;4919485;29;20001;-79
2020/12/06 11:41:26;;;;;;;;;;;23.60;41.00;;;;;;4917654;29;20286;-76
2020/12/06 11:43:53;;;;;;;;;;;23.60;37.80;;;;;;4901849;29;19907;-76
2020/12/06 11:46:20;;;;;;;;;;;23.50;37.10;;;;;;4917816;29;19907;-77
2020/12/06 11:48:46;;;;;;;;;;;23.60;37.10;;;;;;4905738;29;19910;-77
2020/12/06 11:51:13;;;;;;;;;;;23.50;37.20;;;;;;4921098;29;19907;-76
2020/12/06 11:53:41;;;;;;;;;;;23.50;37.30;;;;;;4937945;29;20005;-77
2020/12/06 11:56:08;;;;;;;;;;;23.50;36.90;;;;;;4937866;29;20365;-78
2020/12/06 11:58:35;;;;;;;;;;;23.40;37.90;;;;;;4929347;29;19958;-75
2020/12/06 12:01:02;;;;;;;;;;;23.40;37.20;;;;;;4917495;29;19918;-77
2020/12/06 12:03:28;;;;;;;;;;;23.40;37.90;;;;;;4920110;29;19926;-75
2020/12/06 12:05:55;;;;;;;;;;;23.30;38.00;;;;;;4922183;29;19917;-76
2020/12/06 12:08:25;;;;;;;;;;;23.30;37.90;;;;;;4929678;29;19910;-76
2020/12/06 12:10:51;;;;;;;;;;;23.20;37.90;;;;;;4937852;29;19913;-75
2020/12/06 12:13:18;;;;;;;;;;;23.20;38.10;;;;;;4937524;29;20322;-77
2020/12/06 12:15:44;;;;;;;;;;;23.20;38.50;;;;;;4937234;29;19950;-75
2020/12/06 12:18:15;;;;;;;;;;;23.10;38.60;;;;;;4935747;29;19954;-76
2020/12/06 12:20:42;;;;;;;;;;;23.10;41.00;;;;;;4936820;29;19961;-75
2020/12/06 12:23:10;;;;;;;;;;;23.10;39.30;;;;;;4920488;29;19907;-74
2020/12/06 12:25:37;;;;;;;;;;;23.00;39.40;;;;;;4937176;29;19945;-74
2020/12/06 12:28:04;;;;;;;;;;;23.00;39.30;;;;;;4929274;29;19946;-75
2020/12/06 12:30:31;;;;;;;;;;;23.00;40.00;;;;;;4920816;29;19918;-75
2020/12/06 12:32:58;;;;;;;;;;;22.90;41.30;;;;;;4903662;29;19971;-77
2020/12/06 12:35:24;;;;;;;;;;;22.90;41.10;;;;;;4905878;29;19930;-75
2020/12/06 12:37:51;;;;;;;;;;;22.90;41.00;;;;;;4900496;29;19911;-76
2020/12/06 12:40:18;;;;;;;;;;;22.80;40.10;;;;;;4899160;29;19994;-75
2020/12/06 12:42:44;;;;;;;;;;;22.80;39.30;;;;;;4899435;29;19931;-75
2020/12/06 12:45:11;;;;;;;;;;;22.80;40.70;;;;;;4914112;29;19911;-75
2020/12/06 12:47:38;;;;;;;;;;;22.70;40.60;;;;;;4925620;29;19922;-79
2020/12/06 12:50:04;;;;;;;;;;;22.70;42.20;;;;;;4935410;29;20017;-76
2020/12/06 12:52:32;;;;;;;;;;;22.70;40.00;;;;;;4936719;29;20317;-76
2020/12/06 12:54:59;;;;;;;;;;;22.70;40.80;;;;;;4935166;29;19957;-75
2020/12/06 12:57:28;;;;;;;;;;;22.70;41.00;;;;;;4925947;29;19911;-77
2020/12/06 12:59:55;;;;;;;;;;;22.70;39.90;;;;;;4925400;29;20327;-79
2020/12/06 13:02:22;;;;;;;;;;;22.70;40.50;;;;;;4926378;29;19915;-79
2020/12/06 13:04:48;;;;;;;;;;;22.70;39.40;;;;;;4919877;29;19906;-77
2020/12/06 13:07:15;;;;;;;;;;;22.70;40.40;;;;;;4914788;29;19911;-79
2020/12/06 13:09:42;;;;;;;;;;;22.80;40.60;;;;;;4925285;29;19910;-77
2020/12/06 13:12:10;;;;;;;;;;;22.70;39.60;;;;;;4935990;29;20002;-76
2020/12/06 13:14:36;;;;;;;;;;;22.70;39.80;;;;;;4919937;29;19918;-79
2020/12/06 13:17:04;;;;;;;;;;;22.70;40.30;;;;;;4934686;29;19918;-78
2020/12/06 13:19:30;;;;;;;;;;;22.70;39.80;;;;;;4929170;29;19915;-79
2020/12/06 13:21:59;;;;;;;;;;;22.70;41.30;;;;;;4917465;29;19914;-75
2020/12/06 13:24:26;;;;;;;;;;;22.70;40.10;;;;;;4917453;29;19955;-77
2020/12/06 13:26:54;;;;;;;;;;;22.70;40.70;;;;;;4918793;29;20531;-76
2020/12/06 13:29:22;;;;;;;;;;;22.60;41.40;;;;;;4925561;29;19911;-76
2020/12/06 13:31:53;;;;;;;;;;;22.60;40.60;;;;;;4934508;29;19911;-76
2020/12/06 13:34:20;;;;;;;;;;;22.60;40.90;;;;;;4936087;29;19915;-76
2020/12/06 13:36:51;;;;;;;;;;;22.60;40.80;;;;;;4932763;29;20270;-78
2020/12/06 13:39:18;;;;;;;;;;;22.60;39.70;;;;;;4917205;29;19911;-77
2020/12/06 13:41:44;;;;;;;;;;;22.50;39.70;;;;;;4934101;29;19917;-76
2020/12/06 13:44:11;;;;;;;;;;;22.60;41.90;;;;;;4936035;29;19961;-77
2020/12/06 13:46:38;;;;;;;;;;;22.60;40.40;;;;;;4934094;29;19918;-75
2020/12/06 13:49:04;;;;;;;;;;;22.50;40.70;;;;;;4931723;29;19926;-76
2020/12/06 13:51:32;;;;;;;;;;;22.60;39.50;;;;;;4917830;29;19918;-75
2020/12/06 13:53:59;;;;;;;;;;;22.50;39.80;;;;;;4917538;29;19918;-76
2020/12/06 13:56:30;;;;;;;;;;;22.50;40.00;;;;;;4918410;29;19918;-75
2020/12/06 13:58:57;;;;;;;;;;;22.50;39.50;;;;;;4898161;29;19907;-78
2020/12/06 14:01:24;;;;;;;;;;;22.50;41.30;;;;;;4915777;29;19997;-79
2020/12/06 14:03:51;;;;;;;;;;;22.40;40.00;;;;;;4918721;29;19913;-76
2020/12/06 14:06:18;;;;;;;;;;;22.40;40.00;;;;;;4935760;29;19911;-78
2020/12/06 14:08:45;;;;;;;;;;;22.30;40.00;;;;;;4932585;29;20018;-79
2020/12/06 14:11:16;;;;;;;;;;;22.30;40.80;;;;;;4918100;29;19907;-76
2020/12/06 14:13:43;;;;;;;;;;;22.30;41.00;;;;;;4916702;29;19906;-76
2020/12/06 14:16:13;;;;;;;;;;;22.30;39.90;;;;;;4916352;29;19907;-77
2020/12/06 14:18:40;;;;;;;;;;;22.20;40.30;;;;;;4916241;29;20369;-76
2020/12/06 14:21:06;;;;;;;;;;;22.20;39.90;;;;;;4932523;29;20002;-76
2020/12/06 14:23:33;;;;;;;;;;;22.20;40.60;;;;;;4935805;29;19944;-75